sensor_id;sensor_type;location;lat;lon;timestamp;temperature;humidity
1716;DHT22;855;48.824;9.220;2023-04-21T00:00:01;8.10;93.20
1716;DHT22;855;48.824;9.220;2023-04-21T00:02:32;8.10;93.10
1716;DHT22;855;48.824;9.220;2023-04-21T00:04:59;8.10;93.00
1716;DHT22;855;48.824;9.220;2023-04-21T00:07:27;7.90;93.40
1716;DHT22;855;48.824;9.220;2023-04-21T00:09:55;7.80;93.70
1716;DHT22;855;48.824;9.220;2023-04-21T00:12:23;7.80;94.00
1716;DHT22;855;48.824;9.220;2023-04-21T00:14:49;7.80;94.30
1716;DHT22;855;48.824;9.220;2023-04-21T00:17:16;7.80;94.30
1716;DHT22;855;48.824;9.220;2023-04-21T00:19:43;7.80;94.10
1716;DHT22;855;48.824;9.220;2023-04-21T00:22:10;7.80;94.20
1716;DHT22;855;48.824;9.220;2023-04-21T00:24:39;7.80;94.10
1716;DHT22;855;48.824;9.220;2023-04-21T00:27:06;7.80;94.00
1716;DHT22;855;48.824;9.220;2023-04-21T00:29:34;7.80;94.20
1716;DHT22;855;48.824;9.220;2023-04-21T00:32:01;7.80;94.20
1716;DHT22;855;48.824;9.220;2023-04-21T00:34:32;7.80;94.20
1716;DHT22;855;48.824;9.220;2023-04-21T00:36:59;7.80;94.30
1716;DHT22;855;48.824;9.220;2023-04-21T00:39:26;7.70;94.30
1716;DHT22;855;48.824;9.220;2023-04-21T00:41:53;7.60;94.50
1716;DHT22;855;48.824;9.220;2023-04-21T00:44:20;7.60;94.60
1716;DHT22;855;48.824;9.220;2023-04-21T00:46:48;7.50;94.80
1716;DHT22;855;48.824;9.220;2023-04-21T00:49:15;7.50;94.90
1716;DHT22;855;48.824;9.220;2023-04-21T00:51:42;7.50;94.90
1716;DHT22;855;48.824;9.220;2023-04-21T00:54:11;7.50;94.90
1716;DHT22;855;48.824;9.220;2023-04-21T00:56:39;7.50;94.90
1716;DHT22;855;48.824;9.220;2023-04-21T00:59:06;7.50;94.90
1716;DHT22;855;48.824;9.220;2023-04-21T01:01:33;7.50;95.00
1716;DHT22;855;48.824;9.220;2023-04-21T01:04:03;7.60;95.00
1716;DHT22;855;48.824;9.220;2023-04-21T01:06:31;7.40;94.90
1716;DHT22;855;48.824;9.220;2023-04-21T01:08:59;7.40;95.10
1716;DHT22;855;48.824;9.220;2023-04-21T01:11:26;7.40;95.20
1716;DHT22;855;48.824;9.220;2023-04-21T01:13:53;7.30;95.20
1716;DHT22;855;48.824;9.220;2023-04-21T01:16:20;7.20;95.50
1716;DHT22;855;48.824;9.220;2023-04-21T01:18:48;7.20;95.90
1716;DHT22;855;48.824;9.220;2023-04-21T01:21:18;7.40;95.60
1716;DHT22;855;48.824;9.220;2023-04-21T01:23:46;7.40;95.30
1716;DHT22;855;48.824;9.220;2023-04-21T01:26:13;7.50;95.00
1716;DHT22;855;48.824;9.220;2023-04-21T01:28:42;7.40;94.90
1716;DHT22;855;48.824;9.220;2023-04-21T01:31:09;7.40;95.00
1716;DHT22;855;48.824;9.220;2023-04-21T01:33:36;7.40;94.90
1716;DHT22;855;48.824;9.220;2023-04-21T01:36:03;7.40;94.90
1716;DHT22;855;48.824;9.220;2023-04-21T01:38:30;7.50;94.70
1716;DHT22;855;48.824;9.220;2023-04-21T01:40:58;7.50;94.70
1716;DHT22;855;48.824;9.220;2023-04-21T01:43:25;7.40;94.50
1716;DHT22;855;48.824;9.220;2023-04-21T01:45:52;7.40;94.40
1716;DHT22;855;48.824;9.220;2023-04-21T01:48:19;7.40;94.40
1716;DHT22;855;48.824;9.220;2023-04-21T01:50:46;7.20;94.50
1716;DHT22;855;48.824;9.220;2023-04-21T01:53:12;7.20;94.60
1716;DHT22;855;48.824;9.220;2023-04-21T01:55:39;7.20;94.50
1716;DHT22;855;48.824;9.220;2023-04-21T01:58:07;7.20;94.50
1716;DHT22;855;48.824;9.220;2023-04-21T02:00:34;7.20;94.40
1716;DHT22;855;48.824;9.220;2023-04-21T02:03:01;7.10;94.20
1716;DHT22;855;48.824;9.220;2023-04-21T02:05:28;7.10;94.20
1716;DHT22;855;48.824;9.220;2023-04-21T02:07:54;7.00;94.50
1716;DHT22;855;48.824;9.220;2023-04-21T02:10:21;7.10;94.50
1716;DHT22;855;48.824;9.220;2023-04-21T02:12:48;7.00;94.40
1716;DHT22;855;48.824;9.220;2023-04-21T02:15:16;7.00;94.30
1716;DHT22;855;48.824;9.220;2023-04-21T02:17:43;6.90;94.30
1716;DHT22;855;48.824;9.220;2023-04-21T02:20:11;6.80;94.20
1716;DHT22;855;48.824;9.220;2023-04-21T02:22:38;6.80;94.30
1716;DHT22;855;48.824;9.220;2023-04-21T02:25:05;6.70;94.40
1716;DHT22;855;48.824;9.220;2023-04-21T02:27:32;6.60;94.80
1716;DHT22;855;48.824;9.220;2023-04-21T02:29:59;6.60;94.90
1716;DHT22;855;48.824;9.220;2023-04-21T02:32:27;6.60;94.90
1716;DHT22;855;48.824;9.220;2023-04-21T02:34:55;6.60;95.00
1716;DHT22;855;48.824;9.220;2023-04-21T02:37:22;6.60;95.10
1716;DHT22;855;48.824;9.220;2023-04-21T02:39:48;6.50;94.90
1716;DHT22;855;48.824;9.220;2023-04-21T02:42:15;6.50;95.00
1716;DHT22;855;48.824;9.220;2023-04-21T02:44:42;6.50;94.80
1716;DHT22;855;48.824;9.220;2023-04-21T02:47:09;6.60;94.90
1716;DHT22;855;48.824;9.220;2023-04-21T02:49:40;6.70;94.90
1716;DHT22;855;48.824;9.220;2023-04-21T02:52:07;6.70;94.60
1716;DHT22;855;48.824;9.220;2023-04-21T02:54:34;6.70;94.40
1716;DHT22;855;48.824;9.220;2023-04-21T02:57:01;6.70;94.10
1716;DHT22;855;48.824;9.220;2023-04-21T02:59:28;6.50;94.10
1716;DHT22;855;48.824;9.220;2023-04-21T03:01:55;6.40;94.50
1716;DHT22;855;48.824;9.220;2023-04-21T03:04:21;6.40;94.80
1716;DHT22;855;48.824;9.220;2023-04-21T03:06:51;6.40;94.80
1716;DHT22;855;48.824;9.220;2023-04-21T03:09:18;6.30;94.60
1716;DHT22;855;48.824;9.220;2023-04-21T03:11:45;6.00;94.90
1716;DHT22;855;48.824;9.220;2023-04-21T03:14:12;6.10;95.30
1716;DHT22;855;48.824;9.220;2023-04-21T03:16:38;6.10;95.40
1716;DHT22;855;48.824;9.220;2023-04-21T03:19:05;6.10;95.40
1716;DHT22;855;48.824;9.220;2023-04-21T03:21:32;6.10;95.40
1716;DHT22;855;48.824;9.220;2023-04-21T03:24:04;6.20;95.50
1716;DHT22;855;48.824;9.220;2023-04-21T03:26:30;6.20;95.50
1716;DHT22;855;48.824;9.220;2023-04-21T03:28:57;6.20;95.60
1716;DHT22;855;48.824;9.220;2023-04-21T03:31:24;6.20;95.70
1716;DHT22;855;48.824;9.220;2023-04-21T03:33:51;6.10;95.90
1716;DHT22;855;48.824;9.220;2023-04-21T03:36:18;6.20;96.10
1716;DHT22;855;48.824;9.220;2023-04-21T03:38:44;6.10;96.00
1716;DHT22;855;48.824;9.220;2023-04-21T03:41:12;6.00;96.00
1716;DHT22;855;48.824;9.220;2023-04-21T03:43:39;6.00;96.10
1716;DHT22;855;48.824;9.220;2023-04-21T03:46:06;6.00;96.10
1716;DHT22;855;48.824;9.220;2023-04-21T03:48:33;6.10;96.10
1716;DHT22;855;48.824;9.220;2023-04-21T03:50:59;6.10;95.80
1716;DHT22;855;48.824;9.220;2023-04-21T03:53:26;6.20;95.80
1716;DHT22;855;48.824;9.220;2023-04-21T03:55:53;6.20;95.80
1716;DHT22;855;48.824;9.220;2023-04-21T03:58:21;6.20;95.80
1716;DHT22;855;48.824;9.220;2023-04-21T04:00:48;6.20;95.80
1716;DHT22;855;48.824;9.220;2023-04-21T04:03:15;6.20;95.80
1716;DHT22;855;48.824;9.220;2023-04-21T04:05:41;6.30;95.90
1716;DHT22;855;48.824;9.220;2023-04-21T04:08:08;6.30;95.80
1716;DHT22;855;48.824;9.220;2023-04-21T04:10:35;6.30;95.80
1716;DHT22;855;48.824;9.220;2023-04-21T04:13:02;6.30;96.00
1716;DHT22;855;48.824;9.220;2023-04-21T04:15:30;6.30;95.90
1716;DHT22;855;48.824;9.220;2023-04-21T04:17:57;6.40;95.80
1716;DHT22;855;48.824;9.220;2023-04-21T04:20:23;6.40;95.60
1716;DHT22;855;48.824;9.220;2023-04-21T04:22:50;6.40;95.50
1716;DHT22;855;48.824;9.220;2023-04-21T04:25:17;6.40;95.30
1716;DHT22;855;48.824;9.220;2023-04-21T04:27:44;6.30;95.40
1716;DHT22;855;48.824;9.220;2023-04-21T04:30:12;6.30;95.60
1716;DHT22;855;48.824;9.220;2023-04-21T04:32:40;6.30;95.70
1716;DHT22;855;48.824;9.220;2023-04-21T04:35:08;6.30;95.80
1716;DHT22;855;48.824;9.220;2023-04-21T04:37:35;6.40;95.70
1716;DHT22;855;48.824;9.220;2023-04-21T04:40:02;6.40;95.60
1716;DHT22;855;48.824;9.220;2023-04-21T04:42:31;6.40;95.60
1716;DHT22;855;48.824;9.220;2023-04-21T04:44:59;6.40;95.60
1716;DHT22;855;48.824;9.220;2023-04-21T04:47:26;6.40;95.50
1716;DHT22;855;48.824;9.220;2023-04-21T04:49:55;6.50;95.60
1716;DHT22;855;48.824;9.220;2023-04-21T04:52:22;6.50;95.50
1716;DHT22;855;48.824;9.220;2023-04-21T04:54:48;6.50;95.50
1716;DHT22;855;48.824;9.220;2023-04-21T04:57:15;6.50;95.70
1716;DHT22;855;48.824;9.220;2023-04-21T04:59:42;6.50;95.70
1716;DHT22;855;48.824;9.220;2023-04-21T05:02:09;6.60;95.90
1716;DHT22;855;48.824;9.220;2023-04-21T05:04:36;6.70;96.00
1716;DHT22;855;48.824;9.220;2023-04-21T05:07:04;6.70;95.90
1716;DHT22;855;48.824;9.220;2023-04-21T05:09:32;6.60;95.90
1716;DHT22;855;48.824;9.220;2023-04-21T05:11:59;6.60;95.90
1716;DHT22;855;48.824;9.220;2023-04-21T05:14:26;6.60;96.10
1716;DHT22;855;48.824;9.220;2023-04-21T05:16:53;6.60;96.30
1716;DHT22;855;48.824;9.220;2023-04-21T05:19:20;6.60;96.40
1716;DHT22;855;48.824;9.220;2023-04-21T05:21:47;6.70;96.50
1716;DHT22;855;48.824;9.220;2023-04-21T05:24:15;6.70;96.50
1716;DHT22;855;48.824;9.220;2023-04-21T05:26:47;6.70;96.40
1716;DHT22;855;48.824;9.220;2023-04-21T05:29:14;6.70;96.10
1716;DHT22;855;48.824;9.220;2023-04-21T05:31:41;6.60;96.20
1716;DHT22;855;48.824;9.220;2023-04-21T05:34:08;6.60;96.50
1716;DHT22;855;48.824;9.220;2023-04-21T05:36:35;6.80;96.60
1716;DHT22;855;48.824;9.220;2023-04-21T05:39:02;7.00;96.50
1716;DHT22;855;48.824;9.220;2023-04-21T05:41:30;7.00;96.30
1716;DHT22;855;48.824;9.220;2023-04-21T05:43:57;7.00;96.10
1716;DHT22;855;48.824;9.220;2023-04-21T05:46:24;7.10;96.00
1716;DHT22;855;48.824;9.220;2023-04-21T05:48:51;7.10;95.70
1716;DHT22;855;48.824;9.220;2023-04-21T05:51:18;7.10;95.90
1716;DHT22;855;48.824;9.220;2023-04-21T05:53:45;7.10;96.00
1716;DHT22;855;48.824;9.220;2023-04-21T05:56:12;7.10;95.80
1716;DHT22;855;48.824;9.220;2023-04-21T05:58:41;7.20;95.90
1716;DHT22;855;48.824;9.220;2023-04-21T06:01:08;7.20;95.70
1716;DHT22;855;48.824;9.220;2023-04-21T06:03:35;7.20;95.60
1716;DHT22;855;48.824;9.220;2023-04-21T06:06:03;7.30;95.50
1716;DHT22;855;48.824;9.220;2023-04-21T06:08:30;7.40;95.40
1716;DHT22;855;48.824;9.220;2023-04-21T06:10:57;7.50;95.50
1716;DHT22;855;48.824;9.220;2023-04-21T06:13:24;7.60;95.40
1716;DHT22;855;48.824;9.220;2023-04-21T06:15:53;7.70;95.50
1716;DHT22;855;48.824;9.220;2023-04-21T06:18:20;7.80;95.30
1716;DHT22;855;48.824;9.220;2023-04-21T06:20:51;7.80;94.70
1716;DHT22;855;48.824;9.220;2023-04-21T06:23:18;7.90;94.80
1716;DHT22;855;48.824;9.220;2023-04-21T06:25:45;8.00;94.60
1716;DHT22;855;48.824;9.220;2023-04-21T06:28:12;8.00;94.50
1716;DHT22;855;48.824;9.220;2023-04-21T06:30:39;8.10;94.30
1716;DHT22;855;48.824;9.220;2023-04-21T06:33:07;8.20;94.30
1716;DHT22;855;48.824;9.220;2023-04-21T06:35:34;8.30;94.40
1716;DHT22;855;48.824;9.220;2023-04-21T06:38:01;8.50;94.20
1716;DHT22;855;48.824;9.220;2023-04-21T06:40:28;8.50;93.60
1716;DHT22;855;48.824;9.220;2023-04-21T06:42:54;8.60;93.40
1716;DHT22;855;48.824;9.220;2023-04-21T06:45:21;8.70;93.40
1716;DHT22;855;48.824;9.220;2023-04-21T06:47:48;8.90;93.60
1716;DHT22;855;48.824;9.220;2023-04-21T06:50:17;9.10;93.20
1716;DHT22;855;48.824;9.220;2023-04-21T06:52:43;9.40;92.90
1716;DHT22;855;48.824;9.220;2023-04-21T06:55:10;9.60;91.90
1716;DHT22;855;48.824;9.220;2023-04-21T06:57:37;9.70;90.10
1716;DHT22;855;48.824;9.220;2023-04-21T07:00:05;9.90;89.80
1716;DHT22;855;48.824;9.220;2023-04-21T07:02:33;10.10;89.00
1716;DHT22;855;48.824;9.220;2023-04-21T07:05:04;10.20;88.30
1716;DHT22;855;48.824;9.220;2023-04-21T07:07:33;10.10;87.90
1716;DHT22;855;48.824;9.220;2023-04-21T07:09:59;10.00;87.40
1716;DHT22;855;48.824;9.220;2023-04-21T07:12:26;10.10;87.80
1716;DHT22;855;48.824;9.220;2023-04-21T07:14:53;10.20;87.40
1716;DHT22;855;48.824;9.220;2023-04-21T07:17:20;10.20;87.40
1716;DHT22;855;48.824;9.220;2023-04-21T07:19:47;10.30;87.50
1716;DHT22;855;48.824;9.220;2023-04-21T07:22:14;10.30;87.90
1716;DHT22;855;48.824;9.220;2023-04-21T07:24:42;10.30;88.30
1716;DHT22;855;48.824;9.220;2023-04-21T07:27:09;10.30;88.10
1716;DHT22;855;48.824;9.220;2023-04-21T07:29:36;10.40;87.90
1716;DHT22;855;48.824;9.220;2023-04-21T07:32:02;10.40;87.80
1716;DHT22;855;48.824;9.220;2023-04-21T07:34:29;10.30;87.70
1716;DHT22;855;48.824;9.220;2023-04-21T07:36:56;10.40;87.90
1716;DHT22;855;48.824;9.220;2023-04-21T07:39:23;10.50;87.90
1716;DHT22;855;48.824;9.220;2023-04-21T07:41:51;10.60;87.80
1716;DHT22;855;48.824;9.220;2023-04-21T07:44:18;10.60;87.70
1716;DHT22;855;48.824;9.220;2023-04-21T07:46:45;10.70;87.50
1716;DHT22;855;48.824;9.220;2023-04-21T07:49:12;10.80;87.30
1716;DHT22;855;48.824;9.220;2023-04-21T07:51:39;11.00;86.20
1716;DHT22;855;48.824;9.220;2023-04-21T07:54:05;10.90;85.60
1716;DHT22;855;48.824;9.220;2023-04-21T07:56:32;11.00;86.60
1716;DHT22;855;48.824;9.220;2023-04-21T07:59:00;11.20;86.40
1716;DHT22;855;48.824;9.220;2023-04-21T08:01:27;11.20;85.60
1716;DHT22;855;48.824;9.220;2023-04-21T08:03:54;11.20;85.40
1716;DHT22;855;48.824;9.220;2023-04-21T08:06:21;11.40;85.80
1716;DHT22;855;48.824;9.220;2023-04-21T08:08:48;11.70;85.40
1716;DHT22;855;48.824;9.220;2023-04-21T08:11:15;11.80;85.30
1716;DHT22;855;48.824;9.220;2023-04-21T08:13:42;11.80;84.20
1716;DHT22;855;48.824;9.220;2023-04-21T08:16:10;11.80;84.60
1716;DHT22;855;48.824;9.220;2023-04-21T08:18:37;12.00;85.00
1716;DHT22;855;48.824;9.220;2023-04-21T08:21:04;12.00;83.40
1716;DHT22;855;48.824;9.220;2023-04-21T08:23:31;12.20;83.70
1716;DHT22;855;48.824;9.220;2023-04-21T08:25:57;12.50;83.60
1716;DHT22;855;48.824;9.220;2023-04-21T08:28:24;12.60;82.00
1716;DHT22;855;48.824;9.220;2023-04-21T08:30:51;12.70;81.90
1716;DHT22;855;48.824;9.220;2023-04-21T08:33:19;13.00;82.50
1716;DHT22;855;48.824;9.220;2023-04-21T08:35:46;13.00;80.50
1716;DHT22;855;48.824;9.220;2023-04-21T08:38:13;13.00;80.90
1716;DHT22;855;48.824;9.220;2023-04-21T08:40:40;13.10;79.70
1716;DHT22;855;48.824;9.220;2023-04-21T08:43:07;13.30;79.60
1716;DHT22;855;48.824;9.220;2023-04-21T08:45:34;13.60;80.10
1716;DHT22;855;48.824;9.220;2023-04-21T08:48:02;13.80;79.20
1716;DHT22;855;48.824;9.220;2023-04-21T08:50:33;14.00;78.70
1716;DHT22;855;48.824;9.220;2023-04-21T08:53:00;14.00;77.90
1716;DHT22;855;48.824;9.220;2023-04-21T08:55:29;13.70;75.90
1716;DHT22;855;48.824;9.220;2023-04-21T08:57:56;13.70;77.50
1716;DHT22;855;48.824;9.220;2023-04-21T09:00:23;13.70;77.00
1716;DHT22;855;48.824;9.220;2023-04-21T09:02:54;13.70;76.70
1716;DHT22;855;48.824;9.220;2023-04-21T09:05:22;13.60;77.10
1716;DHT22;855;48.824;9.220;2023-04-21T09:07:53;13.60;76.60
1716;DHT22;855;48.824;9.220;2023-04-21T09:10:23;13.40;76.80
1716;DHT22;855;48.824;9.220;2023-04-21T09:12:53;13.30;78.40
1716;DHT22;855;48.824;9.220;2023-04-21T09:15:20;13.30;78.60
1716;DHT22;855;48.824;9.220;2023-04-21T09:17:54;13.20;78.70
1716;DHT22;855;48.824;9.220;2023-04-21T09:20:22;13.50;79.00
1716;DHT22;855;48.824;9.220;2023-04-21T09:22:49;13.70;78.70
1716;DHT22;855;48.824;9.220;2023-04-21T09:25:19;14.00;77.20
1716;DHT22;855;48.824;9.220;2023-04-21T09:27:46;14.20;76.30
1716;DHT22;855;48.824;9.220;2023-04-21T09:30:14;14.00;76.20
1716;DHT22;855;48.824;9.220;2023-04-21T09:32:43;14.20;77.10
1716;DHT22;855;48.824;9.220;2023-04-21T09:35:11;14.40;77.00
1716;DHT22;855;48.824;9.220;2023-04-21T09:37:38;14.50;75.30
1716;DHT22;855;48.824;9.220;2023-04-21T09:40:06;14.50;75.40
1716;DHT22;855;48.824;9.220;2023-04-21T09:42:35;14.40;75.40
1716;DHT22;855;48.824;9.220;2023-04-21T09:45:01;14.60;75.00
1716;DHT22;855;48.824;9.220;2023-04-21T09:47:29;14.80;76.70
1716;DHT22;855;48.824;9.220;2023-04-21T09:49:59;15.10;75.30
1716;DHT22;855;48.824;9.220;2023-04-21T09:52:28;15.40;73.90
1716;DHT22;855;48.824;9.220;2023-04-21T09:54:59;15.70;72.90
1716;DHT22;855;48.824;9.220;2023-04-21T09:57:30;15.80;71.90
1716;DHT22;855;48.824;9.220;2023-04-21T10:00:02;15.60;72.10
1716;DHT22;855;48.824;9.220;2023-04-21T10:02:31;15.80;72.50
1716;DHT22;855;48.824;9.220;2023-04-21T10:05:00;15.70;72.20
1716;DHT22;855;48.824;9.220;2023-04-21T10:07:27;15.70;72.20
1716;DHT22;855;48.824;9.220;2023-04-21T10:09:55;15.80;72.50
1716;DHT22;855;48.824;9.220;2023-04-21T10:12:24;15.70;71.80
1716;DHT22;855;48.824;9.220;2023-04-21T10:14:51;15.60;73.40
1716;DHT22;855;48.824;9.220;2023-04-21T10:17:22;15.90;72.90
1716;DHT22;855;48.824;9.220;2023-04-21T10:19:50;16.00;74.50
1716;DHT22;855;48.824;9.220;2023-04-21T10:22:27;16.20;74.70
1716;DHT22;855;48.824;9.220;2023-04-21T10:24:55;16.40;71.40
1716;DHT22;855;48.824;9.220;2023-04-21T10:27:33;16.60;71.70
1716;DHT22;855;48.824;9.220;2023-04-21T10:30:05;16.90;70.20
1716;DHT22;855;48.824;9.220;2023-04-21T10:32:44;17.00;68.20
1716;DHT22;855;48.824;9.220;2023-04-21T10:35:13;16.90;69.30
1716;DHT22;855;48.824;9.220;2023-04-21T10:37:42;16.90;69.60
1716;DHT22;855;48.824;9.220;2023-04-21T10:40:32;16.90;69.20
1716;DHT22;855;48.824;9.220;2023-04-21T10:43:01;17.10;71.80
1716;DHT22;855;48.824;9.220;2023-04-21T10:45:29;17.30;68.90
1716;DHT22;855;48.824;9.220;2023-04-21T10:47:59;17.50;68.10
1716;DHT22;855;48.824;9.220;2023-04-21T10:50:29;17.50;67.20
1716;DHT22;855;48.824;9.220;2023-04-21T10:52:58;17.20;68.20
1716;DHT22;855;48.824;9.220;2023-04-21T10:55:26;17.30;69.00
1716;DHT22;855;48.824;9.220;2023-04-21T10:57:54;17.40;68.80
1716;DHT22;855;48.824;9.220;2023-04-21T11:00:23;17.40;68.40
1716;DHT22;855;48.824;9.220;2023-04-21T11:02:55;17.30;67.90
1716;DHT22;855;48.824;9.220;2023-04-21T11:05:32;17.20;66.90
1716;DHT22;855;48.824;9.220;2023-04-21T11:08:08;17.10;67.70
1716;DHT22;855;48.824;9.220;2023-04-21T11:10:44;17.10;67.50
1716;DHT22;855;48.824;9.220;2023-04-21T11:13:11;17.10;67.10
1716;DHT22;855;48.824;9.220;2023-04-21T11:15:39;17.10;67.60
1716;DHT22;855;48.824;9.220;2023-04-21T11:18:05;17.10;67.20
1716;DHT22;855;48.824;9.220;2023-04-21T11:20:39;17.30;68.90
1716;DHT22;855;48.824;9.220;2023-04-21T11:23:06;17.70;68.40
1716;DHT22;855;48.824;9.220;2023-04-21T11:25:33;17.70;67.10
1716;DHT22;855;48.824;9.220;2023-04-21T11:28:00;17.60;67.10
1716;DHT22;855;48.824;9.220;2023-04-21T11:30:32;17.70;66.70
1716;DHT22;855;48.824;9.220;2023-04-21T11:32:59;17.70;65.60
1716;DHT22;855;48.824;9.220;2023-04-21T11:35:26;17.80;66.80
1716;DHT22;855;48.824;9.220;2023-04-21T11:37:55;17.90;66.00
1716;DHT22;855;48.824;9.220;2023-04-21T11:40:22;18.10;65.90
1716;DHT22;855;48.824;9.220;2023-04-21T11:42:49;18.40;65.90
1716;DHT22;855;48.824;9.220;2023-04-21T11:45:16;18.50;65.20
1716;DHT22;855;48.824;9.220;2023-04-21T11:47:44;18.20;65.20
1716;DHT22;855;48.824;9.220;2023-04-21T11:50:11;18.40;64.70
1716;DHT22;855;48.824;9.220;2023-04-21T11:52:38;18.40;63.60
1716;DHT22;855;48.824;9.220;2023-04-21T11:55:11;18.60;65.10
1716;DHT22;855;48.824;9.220;2023-04-21T11:57:40;18.30;65.50
1716;DHT22;855;48.824;9.220;2023-04-21T12:00:09;18.20;65.70
1716;DHT22;855;48.824;9.220;2023-04-21T12:02:37;18.30;66.40
1716;DHT22;855;48.824;9.220;2023-04-21T12:05:06;18.50;65.70
1716;DHT22;855;48.824;9.220;2023-04-21T12:07:35;18.70;65.70
1716;DHT22;855;48.824;9.220;2023-04-21T12:10:09;18.70;64.20
1716;DHT22;855;48.824;9.220;2023-04-21T12:12:37;18.80;64.50
1716;DHT22;855;48.824;9.220;2023-04-21T12:15:05;18.70;63.60
1716;DHT22;855;48.824;9.220;2023-04-21T12:17:36;18.70;64.40
1716;DHT22;855;48.824;9.220;2023-04-21T12:20:05;18.70;63.60
1716;DHT22;855;48.824;9.220;2023-04-21T12:22:32;18.50;63.80
1716;DHT22;855;48.824;9.220;2023-04-21T12:24:59;18.80;64.50
1716;DHT22;855;48.824;9.220;2023-04-21T12:27:27;19.00;62.20
1716;DHT22;855;48.824;9.220;2023-04-21T12:29:54;19.30;61.50
1716;DHT22;855;48.824;9.220;2023-04-21T12:32:21;19.00;61.60
1716;DHT22;855;48.824;9.220;2023-04-21T12:34:48;18.80;61.10
1716;DHT22;855;48.824;9.220;2023-04-21T12:37:15;19.00;62.30
1716;DHT22;855;48.824;9.220;2023-04-21T12:39:42;19.30;64.50
1716;DHT22;855;48.824;9.220;2023-04-21T12:42:09;19.30;61.20
1716;DHT22;855;48.824;9.220;2023-04-21T12:44:38;19.50;62.00
1716;DHT22;855;48.824;9.220;2023-04-21T12:47:05;19.20;61.10
1716;DHT22;855;48.824;9.220;2023-04-21T12:49:32;19.00;61.10
1716;DHT22;855;48.824;9.220;2023-04-21T12:51:59;19.10;60.80
1716;DHT22;855;48.824;9.220;2023-04-21T12:54:25;19.30;61.50
1716;DHT22;855;48.824;9.220;2023-04-21T12:56:53;19.40;60.20
1716;DHT22;855;48.824;9.220;2023-04-21T12:59:19;19.60;59.00
1716;DHT22;855;48.824;9.220;2023-04-21T13:01:49;19.50;58.70
1716;DHT22;855;48.824;9.220;2023-04-21T13:04:16;19.50;58.40
1716;DHT22;855;48.824;9.220;2023-04-21T13:06:43;19.30;59.70
1716;DHT22;855;48.824;9.220;2023-04-21T13:09:10;19.20;59.90
1716;DHT22;855;48.824;9.220;2023-04-21T13:11:37;19.40;59.80
1716;DHT22;855;48.824;9.220;2023-04-21T13:14:04;19.70;59.40
1716;DHT22;855;48.824;9.220;2023-04-21T13:16:31;19.70;58.30
1716;DHT22;855;48.824;9.220;2023-04-21T13:18:59;19.50;58.40
1716;DHT22;855;48.824;9.220;2023-04-21T13:21:26;19.60;58.40
1716;DHT22;855;48.824;9.220;2023-04-21T13:23:53;19.90;59.00
1716;DHT22;855;48.824;9.220;2023-04-21T13:26:21;20.20;58.90
1716;DHT22;855;48.824;9.220;2023-04-21T13:28:48;20.10;57.20
1716;DHT22;855;48.824;9.220;2023-04-21T13:31:15;19.70;58.00
1716;DHT22;855;48.824;9.220;2023-04-21T13:33:41;19.80;58.50
1716;DHT22;855;48.824;9.220;2023-04-21T13:36:10;19.90;58.30
1716;DHT22;855;48.824;9.220;2023-04-21T13:38:37;20.10;58.70
1716;DHT22;855;48.824;9.220;2023-04-21T13:41:05;20.20;57.40
1716;DHT22;855;48.824;9.220;2023-04-21T13:43:32;20.30;55.70
1716;DHT22;855;48.824;9.220;2023-04-21T13:45:59;20.50;56.50
1716;DHT22;855;48.824;9.220;2023-04-21T13:48:26;20.50;55.30
1716;DHT22;855;48.824;9.220;2023-04-21T13:50:54;20.50;56.30
1716;DHT22;855;48.824;9.220;2023-04-21T13:53:22;20.40;56.50
1716;DHT22;855;48.824;9.220;2023-04-21T13:55:49;20.60;55.90
1716;DHT22;855;48.824;9.220;2023-04-21T13:58:17;20.70;55.00
1716;DHT22;855;48.824;9.220;2023-04-21T14:00:44;20.70;55.50
1716;DHT22;855;48.824;9.220;2023-04-21T14:03:10;20.50;55.80
1716;DHT22;855;48.824;9.220;2023-04-21T14:05:38;20.30;55.90
1716;DHT22;855;48.824;9.220;2023-04-21T14:08:05;20.60;56.30
1716;DHT22;855;48.824;9.220;2023-04-21T14:10:33;20.70;55.00
1716;DHT22;855;48.824;9.220;2023-04-21T14:13:00;20.50;56.00
1716;DHT22;855;48.824;9.220;2023-04-21T14:15:27;20.20;55.90
1716;DHT22;855;48.824;9.220;2023-04-21T14:17:54;20.30;56.00
1716;DHT22;855;48.824;9.220;2023-04-21T14:20:21;20.50;55.00
1716;DHT22;855;48.824;9.220;2023-04-21T14:22:48;20.70;55.50
1716;DHT22;855;48.824;9.220;2023-04-21T14:25:15;21.00;56.20
1716;DHT22;855;48.824;9.220;2023-04-21T14:27:43;21.20;54.30
1716;DHT22;855;48.824;9.220;2023-04-21T14:30:11;21.20;53.60
1716;DHT22;855;48.824;9.220;2023-04-21T14:32:38;21.20;53.60
1716;DHT22;855;48.824;9.220;2023-04-21T14:35:09;21.20;52.80
1716;DHT22;855;48.824;9.220;2023-04-21T14:37:36;21.00;53.10
1716;DHT22;855;48.824;9.220;2023-04-21T14:40:04;21.20;52.80
1716;DHT22;855;48.824;9.220;2023-04-21T14:42:31;21.10;53.70
1716;DHT22;855;48.824;9.220;2023-04-21T14:44:59;20.90;53.90
1716;DHT22;855;48.824;9.220;2023-04-21T14:47:26;21.00;54.90
1716;DHT22;855;48.824;9.220;2023-04-21T14:49:53;21.20;53.80
1716;DHT22;855;48.824;9.220;2023-04-21T14:52:20;21.30;53.70
1716;DHT22;855;48.824;9.220;2023-04-21T14:54:49;21.40;53.70
1716;DHT22;855;48.824;9.220;2023-04-21T14:57:15;21.50;54.30
1716;DHT22;855;48.824;9.220;2023-04-21T14:59:42;21.60;54.30
1716;DHT22;855;48.824;9.220;2023-04-21T15:02:12;21.50;54.80
1716;DHT22;855;48.824;9.220;2023-04-21T15:04:39;21.30;53.90
1716;DHT22;855;48.824;9.220;2023-04-21T15:07:06;21.40;54.30
1716;DHT22;855;48.824;9.220;2023-04-21T15:09:32;21.20;54.70
1716;DHT22;855;48.824;9.220;2023-04-21T15:12:00;21.10;54.50
1716;DHT22;855;48.824;9.220;2023-04-21T15:14:26;21.20;54.50
1716;DHT22;855;48.824;9.220;2023-04-21T15:16:53;21.40;53.10
1716;DHT22;855;48.824;9.220;2023-04-21T15:19:21;21.40;52.40
1716;DHT22;855;48.824;9.220;2023-04-21T15:21:48;21.40;51.90
1716;DHT22;855;48.824;9.220;2023-04-21T15:24:15;21.30;51.30
1716;DHT22;855;48.824;9.220;2023-04-21T15:26:42;21.20;50.90
1716;DHT22;855;48.824;9.220;2023-04-21T15:29:09;21.30;52.30
1716;DHT22;855;48.824;9.220;2023-04-21T15:31:36;21.60;53.10
1716;DHT22;855;48.824;9.220;2023-04-21T15:34:02;21.90;52.70
1716;DHT22;855;48.824;9.220;2023-04-21T15:36:31;22.00;53.30
1716;DHT22;855;48.824;9.220;2023-04-21T15:38:58;22.10;50.80
1716;DHT22;855;48.824;9.220;2023-04-21T15:41:24;22.30;50.70
1716;DHT22;855;48.824;9.220;2023-04-21T15:43:53;22.30;50.80
1716;DHT22;855;48.824;9.220;2023-04-21T15:46:20;22.20;51.10
1716;DHT22;855;48.824;9.220;2023-04-21T15:48:47;21.90;51.40
1716;DHT22;855;48.824;9.220;2023-04-21T15:51:14;21.50;53.20
1716;DHT22;855;48.824;9.220;2023-04-21T15:53:42;21.60;52.90
1716;DHT22;855;48.824;9.220;2023-04-21T15:56:21;21.60;53.80
1716;DHT22;855;48.824;9.220;2023-04-21T15:58:47;21.40;53.40
1716;DHT22;855;48.824;9.220;2023-04-21T16:01:14;21.40;53.90
1716;DHT22;855;48.824;9.220;2023-04-21T16:03:42;21.30;54.20
1716;DHT22;855;48.824;9.220;2023-04-21T16:06:10;21.20;53.80
1716;DHT22;855;48.824;9.220;2023-04-21T16:08:37;21.10;55.20
1716;DHT22;855;48.824;9.220;2023-04-21T16:11:05;21.00;56.00
1716;DHT22;855;48.824;9.220;2023-04-21T16:13:32;20.80;56.40
1716;DHT22;855;48.824;9.220;2023-04-21T16:15:59;20.70;56.50
1716;DHT22;855;48.824;9.220;2023-04-21T16:18:26;20.50;57.00
1716;DHT22;855;48.824;9.220;2023-04-21T16:20:53;20.60;57.30
1716;DHT22;855;48.824;9.220;2023-04-21T16:23:20;20.50;57.90
1716;DHT22;855;48.824;9.220;2023-04-21T16:25:49;20.50;58.20